createdAt,value
2023-04-28T00:01:37.913Z,45.44
2023-04-28T00:04:04.714Z,44.69
2023-04-28T00:06:31.477Z,44.68
2023-04-28T00:08:57.955Z,44.47
2023-04-28T00:11:24.447Z,44.86
2023-04-28T00:13:51.666Z,44.22
2023-04-28T00:16:18.191Z,43.98
2023-04-28T00:18:44.888Z,44.48
2023-04-28T00:21:11.366Z,44.17
2023-04-28T00:23:37.800Z,44.46
2023-04-28T00:26:04.368Z,43.95
2023-04-28T00:28:34.579Z,44.14
2023-04-28T00:31:02.001Z,43.93
2023-04-28T00:33:37.324Z,44.13
2023-04-28T00:36:07.670Z,45.10
2023-04-28T00:38:34.481Z,45.31
2023-04-28T00:41:10.450Z,45.39
2023-04-28T00:43:56.881Z,46.06
2023-04-28T00:46:34.255Z,47.91
2023-04-28T00:49:01.288Z,46.49
2023-04-28T00:51:29.016Z,47.46
2023-04-28T00:53:56.831Z,49.13
2023-04-28T00:56:23.308Z,48.83
2023-04-28T00:58:49.804Z,49.57
2023-04-28T01:01:16.838Z,49.74
2023-04-28T01:03:44.155Z,50.71
2023-04-28T01:06:12.229Z,50.93
2023-04-28T01:08:39.402Z,50.31
2023-04-28T01:11:07.097Z,50.60
2023-04-28T01:13:33.689Z,51.57
2023-04-28T01:16:05.941Z,51.27
2023-04-28T01:18:32.576Z,50.94
2023-04-28T01:21:10.031Z,50.98
2023-04-28T01:23:41.430Z,51.47
2023-04-28T01:26:07.926Z,52.33
2023-04-28T01:28:34.442Z,52.09
2023-04-28T01:31:00.966Z,52.17
2023-04-28T01:33:36.837Z,52.37
2023-04-28T01:36:03.342Z,52.94
2023-04-28T01:38:29.794Z,53.67
2023-04-28T01:40:56.421Z,53.01
2023-04-28T01:43:22.902Z,53.60
2023-04-28T01:45:49.388Z,53.56
2023-04-28T01:48:15.933Z,53.03
2023-04-28T01:50:42.457Z,53.28
2023-04-28T01:53:46.393Z,53.99
2023-04-28T01:56:12.896Z,53.46
2023-04-28T01:58:39.425Z,52.97
2023-04-28T02:01:06.453Z,54.01
2023-04-28T02:03:34.393Z,54.62
2023-04-28T02:06:01.063Z,55.26
2023-04-28T02:08:27.506Z,54.92
2023-04-28T02:10:54.075Z,55.21
2023-04-28T02:13:20.508Z,55.03
2023-04-28T02:15:46.964Z,54.68
2023-04-28T02:18:13.438Z,56.07
2023-04-28T02:20:41.593Z,57.37
2023-04-28T02:23:08.962Z,56.44
2023-04-28T02:25:35.453Z,57.24
2023-04-28T02:28:02.244Z,57.31
2023-04-28T02:30:28.720Z,58.26
2023-04-28T02:32:55.212Z,58.31
2023-04-28T02:35:21.697Z,58.86
2023-04-28T02:37:48.158Z,59.17
2023-04-28T02:40:14.806Z,58.15
2023-04-28T02:42:41.306Z,59.23
2023-04-28T02:45:08.302Z,60.03
2023-04-28T02:47:34.904Z,59.44
2023-04-28T02:50:01.415Z,58.52
2023-04-28T02:52:28.072Z,58.14
2023-04-28T02:54:57.821Z,59.35
2023-04-28T02:57:24.463Z,59.27
2023-04-28T02:59:51.044Z,59.46
2023-04-28T03:02:17.739Z,59.81
2023-04-28T03:04:44.375Z,58.74
2023-04-28T03:07:10.990Z,59.20
2023-04-28T03:09:37.468Z,58.93
2023-04-28T03:12:06.727Z,58.75
2023-04-28T03:14:35.430Z,58.60
2023-04-28T03:17:01.932Z,58.29
2023-04-28T03:19:29.583Z,58.63
2023-04-28T03:21:56.059Z,58.42
2023-04-28T03:24:22.527Z,58.36
2023-04-28T03:26:49.035Z,59.12
2023-04-28T03:29:15.981Z,58.38
2023-04-28T03:31:42.648Z,58.22
2023-04-28T03:34:09.190Z,57.90
2023-04-28T03:36:35.771Z,58.15
2023-04-28T03:39:02.652Z,58.61
2023-04-28T03:41:29.093Z,58.54
2023-04-28T03:43:56.680Z,59.23
2023-04-28T03:46:23.868Z,59.97
2023-04-28T03:48:50.559Z,59.50
2023-04-28T03:51:17.086Z,59.65
2023-04-28T03:53:43.656Z,58.74
2023-04-28T03:56:10.252Z,58.90
2023-04-28T03:58:36.701Z,57.75
2023-04-28T04:01:03.312Z,58.81
2023-04-28T04:03:29.979Z,59.07
2023-04-28T04:05:57.106Z,58.73
2023-04-28T04:08:23.720Z,60.17
2023-04-28T04:10:51.710Z,59.96
2023-04-28T04:13:18.152Z,59.55
2023-04-28T04:15:44.689Z,59.36
2023-04-28T04:18:11.331Z,59.17
2023-04-28T04:20:37.851Z,59.15
2023-04-28T04:23:04.327Z,59.31
2023-04-28T04:25:32.441Z,59.08
2023-04-28T04:27:59.848Z,59.71
2023-04-28T04:30:26.316Z,60.27
2023-04-28T04:32:52.772Z,60.12
2023-04-28T04:35:19.284Z,60.80
2023-04-28T04:37:45.861Z,60.69
2023-04-28T04:40:12.716Z,61.16
2023-04-28T04:42:39.190Z,60.50
2023-04-28T04:45:06.740Z,60.19
2023-04-28T04:47:33.208Z,60.84
2023-04-28T04:49:59.830Z,60.98
2023-04-28T04:52:26.483Z,61.04
2023-04-28T04:54:53.065Z,61.30
2023-04-28T04:57:19.608Z,60.81
2023-04-28T04:59:46.104Z,60.65
2023-04-28T05:02:12.695Z,60.69
2023-04-28T05:04:39.484Z,61.82
2023-04-28T05:07:06.644Z,61.93
2023-04-28T05:09:33.920Z,61.94
2023-04-28T05:12:00.627Z,61.96
2023-04-28T05:14:27.110Z,61.71
2023-04-28T05:16:53.804Z,60.56
2023-04-28T05:19:20.570Z,59.82
2023-04-28T05:21:47.957Z,60.33
2023-04-28T05:24:15.414Z,60.38
2023-04-28T05:26:42.263Z,60.34
2023-04-28T05:29:08.832Z,60.91
2023-04-28T05:31:35.491Z,60.67
2023-04-28T05:34:02.009Z,61.23
2023-04-28T05:36:28.554Z,61.64
2023-04-28T05:38:55.118Z,61.56
2023-04-28T05:41:21.591Z,61.43
2023-04-28T05:43:50.917Z,61.13
2023-04-28T05:46:29.152Z,61.08
2023-04-28T05:48:58.134Z,61.40
2023-04-28T05:51:24.800Z,61.06
2023-04-28T05:53:51.382Z,60.89
2023-04-28T05:56:18.172Z,60.76
2023-04-28T05:58:45.015Z,61.55
2023-04-28T06:01:11.884Z,61.89
2023-04-28T06:03:38.749Z,62.41
2023-04-28T06:06:09.789Z,62.29
2023-04-28T06:08:37.206Z,61.85
2023-04-28T06:11:04.122Z,61.42
2023-04-28T06:13:30.834Z,61.22
2023-04-28T06:15:57.319Z,61.61
2023-04-28T06:18:24.386Z,61.64
2023-04-28T06:20:50.955Z,61.87
2023-04-28T06:23:17.464Z,62.08
2023-04-28T06:25:44.247Z,61.67
2023-04-28T06:28:12.289Z,61.55
2023-04-28T06:30:38.785Z,61.27
2023-04-28T06:33:05.413Z,61.69
2023-04-28T06:35:32.928Z,61.78
2023-04-28T06:37:59.495Z,60.93
2023-04-28T06:40:25.994Z,61.21
2023-04-28T06:42:52.496Z,61.51
2023-04-28T06:45:18.961Z,61.25
2023-04-28T06:47:45.748Z,60.82
2023-04-28T06:50:12.650Z,60.63
2023-04-28T06:52:39.963Z,61.56
2023-04-28T06:55:10.203Z,61.87
2023-04-28T06:57:38.034Z,62.14
2023-04-28T07:00:05.597Z,62.41
2023-04-28T07:02:32.206Z,61.64
2023-04-28T07:04:58.856Z,62.54
2023-04-28T07:07:26.363Z,62.32
2023-04-28T07:09:53.519Z,62.12
2023-04-28T07:12:21.350Z,62.38
2023-04-28T07:14:48.075Z,61.83
2023-04-28T07:17:14.613Z,61.29
2023-04-28T07:19:41.167Z,61.47
2023-04-28T07:22:07.718Z,61.77
2023-04-28T07:24:34.760Z,61.84
2023-04-28T07:27:01.848Z,61.37
2023-04-28T07:29:33.704Z,60.44
2023-04-28T07:32:01.548Z,60.76
2023-04-28T07:34:28.280Z,61.32
2023-04-28T07:36:55.074Z,61.33
2023-04-28T07:39:21.552Z,61.74
2023-04-28T07:41:48.119Z,62.22
2023-04-28T07:44:14.950Z,63.20
2023-04-28T07:46:41.680Z,62.63
2023-04-28T07:49:08.304Z,62.96
2023-04-28T07:51:34.778Z,63.30
2023-04-28T07:54:01.299Z,62.66
2023-04-28T07:56:28.104Z,61.65
2023-04-28T07:58:54.572Z,62.06
2023-04-28T08:01:21.494Z,62.65
2023-04-28T08:03:48.327Z,62.11
2023-04-28T08:06:15.088Z,61.97
2023-04-28T08:08:41.987Z,61.51
2023-04-28T08:11:08.743Z,60.51
2023-04-28T08:13:35.233Z,60.86
2023-04-28T08:16:01.855Z,60.63
2023-04-28T08:18:29.178Z,61.37
2023-04-28T08:20:55.829Z,61.56
2023-04-28T08:23:22.401Z,61.31
2023-04-28T08:25:50.226Z,61.32
2023-04-28T08:28:16.836Z,62.14
2023-04-28T08:30:43.317Z,61.71
2023-04-28T08:33:09.958Z,60.66
2023-04-28T08:35:36.672Z,60.76
2023-04-28T08:38:03.363Z,60.71
2023-04-28T08:40:31.419Z,60.57
2023-04-28T08:42:58.372Z,60.94
2023-04-28T08:45:27.893Z,60.50
2023-04-28T08:47:56.832Z,60.25
2023-04-28T08:50:25.843Z,59.83
2023-04-28T08:52:53.440Z,59.77
2023-04-28T08:55:20.818Z,60.04
2023-04-28T08:57:54.880Z,59.24
2023-04-28T09:00:21.485Z,59.38
2023-04-28T09:02:48.277Z,59.16
2023-04-28T09:05:15.312Z,59.43
2023-04-28T09:07:47.020Z,59.82
2023-04-28T09:10:19.109Z,59.68
2023-04-28T09:12:46.637Z,58.91
2023-04-28T09:15:31.171Z,58.99
2023-04-28T09:17:59.044Z,58.85
2023-04-28T09:20:31.365Z,59.47
2023-04-28T09:23:14.608Z,59.53
2023-04-28T09:25:41.077Z,59.64
2023-04-28T09:28:23.489Z,59.67
2023-04-28T09:30:50.083Z,59.97
2023-04-28T09:33:16.710Z,60.34
2023-04-28T09:35:47.768Z,60.17
2023-04-28T09:38:19.686Z,59.65
2023-04-28T09:40:58.394Z,59.25
2023-04-28T09:43:33.779Z,58.74
2023-04-28T09:46:03.996Z,58.72
2023-04-28T09:48:38.591Z,58.60
2023-04-28T09:51:07.950Z,58.72
2023-04-28T09:53:35.809Z,58.32
2023-04-28T09:56:05.402Z,57.63
2023-04-28T09:58:35.101Z,58.03
2023-04-28T10:01:01.902Z,57.79
2023-04-28T10:03:31.044Z,56.84
2023-04-28T10:05:59.692Z,57.40
2023-04-28T10:08:27.823Z,56.90
2023-04-28T10:10:55.567Z,57.34
2023-04-28T10:13:23.946Z,57.42
2023-04-28T10:15:51.805Z,57.65
2023-04-28T10:18:18.801Z,57.96
2023-04-28T10:20:49.988Z,58.18
2023-04-28T10:23:55.504Z,58.26
2023-04-28T10:26:36.326Z,58.80
2023-04-28T10:29:03.810Z,58.46
2023-04-28T10:31:30.567Z,58.44
2023-04-28T10:34:24.494Z,58.81
2023-04-28T10:36:54.802Z,58.38
2023-04-28T10:39:21.435Z,58.80
2023-04-28T10:41:49.024Z,58.36
2023-04-28T10:44:30.703Z,58.71
2023-04-28T10:47:09.221Z,58.25
2023-04-28T10:49:54.703Z,57.95
2023-04-28T10:52:33.436Z,57.76
2023-04-28T10:55:40.028Z,57.99
2023-04-28T10:58:15.931Z,57.78
2023-04-28T11:00:53.747Z,57.78
2023-04-28T11:04:02.630Z,57.38
2023-04-28T11:06:34.571Z,57.67
2023-04-28T11:09:23.350Z,57.79
2023-04-28T11:12:02.138Z,58.44
2023-04-28T11:14:29.917Z,58.66
2023-04-28T11:17:03.064Z,58.46
2023-04-28T11:19:46.160Z,58.03
2023-04-28T11:22:21.921Z,57.95
2023-04-28T11:25:00.410Z,58.50
2023-04-28T11:27:29.850Z,58.73
2023-04-28T11:29:56.389Z,59.05
2023-04-28T11:32:36.512Z,58.57
2023-04-28T11:35:04.537Z,57.34
2023-04-28T11:37:31.189Z,56.33
2023-04-28T11:39:57.697Z,56.47
2023-04-28T11:42:25.858Z,56.83
2023-04-28T11:44:53.934Z,56.56
2023-04-28T11:47:34.360Z,56.97
2023-04-28T11:50:02.015Z,57.42
2023-04-28T11:52:28.970Z,57.29
2023-04-28T11:54:59.925Z,57.60
2023-04-28T11:57:26.957Z,57.76
2023-04-28T11:59:53.681Z,57.49
2023-04-28T12:02:30.760Z,57.01
2023-04-28T12:05:07.407Z,57.52
2023-04-28T12:07:43.665Z,57.77
2023-04-28T12:10:13.456Z,57.83
2023-04-28T12:12:49.948Z,58.38
2023-04-28T12:15:19.488Z,58.62
2023-04-28T12:17:47.232Z,59.29
2023-04-28T12:20:36.516Z,60.51
2023-04-28T12:23:03.388Z,60.19
2023-04-28T12:25:30.086Z,60.23
2023-04-28T12:28:08.169Z,60.16
2023-04-28T12:30:42.427Z,60.11
2023-04-28T12:33:27.368Z,61.06
2023-04-28T12:35:56.433Z,60.87
2023-04-28T12:38:24.525Z,60.66
2023-04-28T12:40:51.105Z,60.54
2023-04-28T12:43:17.719Z,60.69
2023-04-28T12:45:44.227Z,60.46
2023-04-28T12:48:11.048Z,59.52
2023-04-28T12:50:37.859Z,59.10
2023-04-28T12:53:04.859Z,58.80
2023-04-28T12:55:31.478Z,58.27
2023-04-28T12:57:58.136Z,57.86
2023-04-28T13:00:25.143Z,58.23
2023-04-28T13:02:53.174Z,57.30
2023-04-28T13:05:19.932Z,57.19
2023-04-28T13:07:47.402Z,58.29
2023-04-28T13:10:13.947Z,57.98
2023-04-28T13:12:41.261Z,57.54
2023-04-28T13:15:09.046Z,57.30
2023-04-28T13:17:35.752Z,58.36
2023-04-28T13:20:03.734Z,57.63
2023-04-28T13:22:30.283Z,57.14
2023-04-28T13:24:56.776Z,56.79
2023-04-28T13:27:23.563Z,56.83
2023-04-28T13:29:50.140Z,55.75
2023-04-28T13:32:16.757Z,55.46
2023-04-28T13:34:43.915Z,55.06
2023-04-28T13:37:10.694Z,54.29
2023-04-28T13:39:37.196Z,54.03
2023-04-28T13:42:05.426Z,53.58
2023-04-28T13:44:31.950Z,53.10
2023-04-28T13:46:58.597Z,53.28
2023-04-28T13:49:25.236Z,52.67
2023-04-28T13:51:51.670Z,53.39
2023-04-28T13:54:18.321Z,52.87
2023-04-28T13:56:44.992Z,51.70
2023-04-28T13:59:11.441Z,50.39
2023-04-28T14:01:38.000Z,50.88
2023-04-28T14:04:04.680Z,51.65
2023-04-28T14:06:32.969Z,51.82
2023-04-28T14:09:01.135Z,51.45
2023-04-28T14:11:27.708Z,51.37
2023-04-28T14:13:54.334Z,51.61
2023-04-28T14:16:21.036Z,51.97
2023-04-28T14:18:47.552Z,51.78
2023-04-28T14:21:14.056Z,51.83
2023-04-28T14:23:40.600Z,51.47
2023-04-28T14:26:07.139Z,51.68
2023-04-28T14:28:33.680Z,51.80
2023-04-28T14:31:06.139Z,51.51
2023-04-28T14:33:33.777Z,50.59
2023-04-28T14:36:02.289Z,49.85
2023-04-28T14:38:30.626Z,49.69
2023-04-28T14:40:57.604Z,49.76
2023-04-28T14:43:24.663Z,49.04
2023-04-28T14:45:51.806Z,48.59
2023-04-28T14:48:18.601Z,47.46
2023-04-28T14:50:46.120Z,47.49
2023-04-28T14:53:12.697Z,47.85
2023-04-28T14:55:39.512Z,47.93
2023-04-28T14:58:06.233Z,47.86
2023-04-28T15:00:32.745Z,48.38
2023-04-28T15:02:59.515Z,48.93
2023-04-28T15:05:26.213Z,49.71
2023-04-28T15:07:52.758Z,50.67
2023-04-28T15:10:19.295Z,51.04
2023-04-28T15:12:47.130Z,51.01
2023-04-28T15:15:13.802Z,51.18
2023-04-28T15:17:40.604Z,51.69
2023-04-28T15:20:08.093Z,51.40
2023-04-28T15:22:36.335Z,51.30
2023-04-28T15:25:02.917Z,51.46
2023-04-28T15:27:29.444Z,51.53
2023-04-28T15:29:55.891Z,51.65
2023-04-28T15:32:23.495Z,52.05
2023-04-28T15:34:50.539Z,52.12
2023-04-28T15:37:43.022Z,51.94
2023-04-28T15:40:16.676Z,52.16
2023-04-28T15:42:52.035Z,51.90
2023-04-28T15:45:22.453Z,51.47
2023-04-28T15:47:50.808Z,51.55
2023-04-28T15:50:19.921Z,51.90
2023-04-28T15:52:49.618Z,51.61
2023-04-28T15:55:18.916Z,51.52
2023-04-28T15:57:47.478Z,51.10
2023-04-28T16:00:15.872Z,51.12
2023-04-28T16:02:46.485Z,50.76
2023-04-28T16:05:13.829Z,51.32
2023-04-28T16:07:41.173Z,51.40
2023-04-28T16:10:13.015Z,50.88
2023-04-28T16:12:40.633Z,51.02
2023-04-28T16:15:10.183Z,50.50
2023-04-28T16:17:38.407Z,50.49
2023-04-28T16:20:07.583Z,50.92
2023-04-28T16:22:39.671Z,50.62
2023-04-28T16:25:07.177Z,50.86
2023-04-28T16:27:35.844Z,51.09
2023-04-28T16:30:03.246Z,50.67
2023-04-28T16:32:30.529Z,50.30
2023-04-28T16:34:58.316Z,50.10
2023-04-28T16:37:25.496Z,50.14
2023-04-28T16:39:53.144Z,50.23
2023-04-28T16:42:22.348Z,50.28
2023-04-28T16:44:51.809Z,50.60
2023-04-28T16:47:19.413Z,50.71
2023-04-28T16:49:46.063Z,50.50
2023-04-28T16:52:12.707Z,50.28
2023-04-28T16:54:39.221Z,50.17
2023-04-28T16:57:06.587Z,48.24
2023-04-28T16:59:33.963Z,49.53
2023-04-28T17:02:03.695Z,49.83
2023-04-28T17:04:31.251Z,50.12
2023-04-28T17:06:58.711Z,50.79
2023-04-28T17:09:28.390Z,50.56
2023-04-28T17:11:54.947Z,50.26
2023-04-28T17:14:21.560Z,50.70
2023-04-28T17:16:48.079Z,51.58
2023-04-28T17:19:14.678Z,51.63
2023-04-28T17:21:41.285Z,50.33
2023-04-28T17:24:08.583Z,50.29
2023-04-28T17:26:35.424Z,50.73
2023-04-28T17:29:02.296Z,50.15
2023-04-28T17:31:29.606Z,48.88
2023-04-28T17:33:59.376Z,49.12
2023-04-28T17:36:27.084Z,48.26
2023-04-28T17:38:54.143Z,48.54
2023-04-28T17:41:21.647Z,48.21
2023-04-28T17:43:48.924Z,48.94
2023-04-28T17:46:15.925Z,49.83
2023-04-28T17:48:43.043Z,49.66
2023-04-28T17:51:09.767Z,49.10
2023-04-28T17:53:37.310Z,49.72
2023-04-28T17:56:03.997Z,50.32
2023-04-28T17:58:32.485Z,51.28
2023-04-28T18:01:04.101Z,50.93
2023-04-28T18:03:32.208Z,51.42
2023-04-28T18:05:59.285Z,51.39
2023-04-28T18:08:25.824Z,50.35
2023-04-28T18:10:52.516Z,50.91
2023-04-28T18:13:19.046Z,50.98
2023-04-28T18:15:46.200Z,50.95
2023-04-28T18:18:13.301Z,51.14
2023-04-28T18:20:41.516Z,51.10
2023-04-28T18:23:08.839Z,50.91
2023-04-28T18:25:38.086Z,51.53
2023-04-28T18:28:05.851Z,52.03
2023-04-28T18:30:38.428Z,51.66
2023-04-28T18:33:07.746Z,51.38
2023-04-28T18:35:35.416Z,52.17
2023-04-28T18:38:01.976Z,51.99
2023-04-28T18:40:37.732Z,51.80
2023-04-28T18:43:06.696Z,51.74
2023-04-28T18:45:36.007Z,52.10
2023-04-28T18:48:03.778Z,52.47
2023-04-28T18:50:32.259Z,52.27
2023-04-28T18:53:00.929Z,52.52
2023-04-28T18:55:27.573Z,52.61
2023-04-28T18:57:54.158Z,52.35
2023-04-28T19:00:21.468Z,52.11
2023-04-28T19:02:48.119Z,52.10
2023-04-28T19:05:14.769Z,52.29
2023-04-28T19:07:41.987Z,52.00
2023-04-28T19:10:09.312Z,52.20
2023-04-28T19:12:36.140Z,52.16
2023-04-28T19:15:02.783Z,51.76
2023-04-28T19:17:30.249Z,52.25
2023-04-28T19:19:57.681Z,52.66
2023-04-28T19:22:36.356Z,53.10
2023-04-28T19:25:05.251Z,52.63
2023-04-28T19:27:34.569Z,52.47
2023-04-28T19:30:02.980Z,52.11
2023-04-28T19:32:30.096Z,52.77
2023-04-28T19:34:56.864Z,52.78
2023-04-28T19:37:24.466Z,52.89
2023-04-28T19:39:51.763Z,53.66
2023-04-28T19:42:19.156Z,53.89
2023-04-28T19:44:47.531Z,53.70
2023-04-28T19:47:34.012Z,53.47
2023-04-28T19:50:01.372Z,53.41
2023-04-28T19:52:28.126Z,53.32
2023-04-28T19:54:54.836Z,53.62
2023-04-28T19:57:21.851Z,53.51
2023-04-28T19:59:49.583Z,53.93
2023-04-28T20:02:17.213Z,54.30
2023-04-28T20:04:44.282Z,54.17
2023-04-28T20:07:11.386Z,54.43
2023-04-28T20:09:38.869Z,54.61
2023-04-28T20:12:08.545Z,54.62
2023-04-28T20:14:36.970Z,54.67
2023-04-28T20:17:04.640Z,54.70
2023-04-28T20:19:31.617Z,55.34
2023-04-28T20:21:58.144Z,54.94
2023-04-28T20:24:24.811Z,55.31
2023-04-28T20:26:54.377Z,55.34
2023-04-28T20:29:21.383Z,55.21
2023-04-28T20:31:48.211Z,55.42
2023-04-28T20:34:14.993Z,55.12
2023-04-28T20:36:42.869Z,55.36
2023-04-28T20:39:10.898Z,55.67
2023-04-28T20:41:38.050Z,55.94
2023-04-28T20:44:04.584Z,55.97
2023-04-28T20:46:32.991Z,56.15
2023-04-28T20:49:00.188Z,56.37
2023-04-28T20:51:28.862Z,56.05
2023-04-28T20:53:57.291Z,55.86
2023-04-28T20:56:23.814Z,55.72
2023-04-28T20:58:50.396Z,56.41
2023-04-28T21:01:16.957Z,57.03
2023-04-28T21:03:43.695Z,57.30
2023-04-28T21:06:10.446Z,57.49
2023-04-28T21:08:37.190Z,57.44
2023-04-28T21:11:03.701Z,57.60
2023-04-28T21:16:20.949Z,59.21
2023-04-28T21:18:48.841Z,57.87
2023-04-28T21:21:15.343Z,58.11
2023-04-28T21:23:42.634Z,58.21
2023-04-28T21:26:10.107Z,58.21
2023-04-28T21:28:37.374Z,58.36
2023-04-28T21:31:04.774Z,58.21
2023-04-28T21:33:32.376Z,58.31
2023-04-28T21:36:05.417Z,58.65
2023-04-28T21:38:31.974Z,58.73
2023-04-28T21:40:58.447Z,58.74
2023-04-28T21:43:24.954Z,58.89
2023-04-28T21:45:52.130Z,59.08
2023-04-28T21:48:18.648Z,58.96
2023-04-28T21:50:45.292Z,59.04
2023-04-28T21:53:11.938Z,59.01
2023-04-28T21:55:38.427Z,59.56
2023-04-28T21:58:04.958Z,59.03
2023-04-28T22:00:32.725Z,59.50
2023-04-28T22:02:59.677Z,60.55
2023-04-28T22:05:26.282Z,60.05
2023-04-28T22:07:53.540Z,60.71
2023-04-28T22:10:20.154Z,60.66
2023-04-28T22:12:46.704Z,60.57
2023-04-28T22:15:13.405Z,60.71
2023-04-28T22:17:40.485Z,60.55
2023-04-28T22:20:08.327Z,61.08
2023-04-28T22:22:35.050Z,60.72
2023-04-28T22:25:01.897Z,61.00
2023-04-28T22:27:30.297Z,61.20
2023-04-28T22:29:58.580Z,61.54
2023-04-28T22:32:26.538Z,61.31
2023-04-28T22:34:53.294Z,61.76
2023-04-28T22:37:19.863Z,61.38
2023-04-28T22:39:46.836Z,61.80
2023-04-28T22:42:13.466Z,61.23
2023-04-28T22:44:39.991Z,61.48
2023-04-28T22:47:06.578Z,61.62
2023-04-28T22:49:33.048Z,61.19
2023-04-28T22:51:59.912Z,61.25
2023-04-28T22:54:26.653Z,61.47
2023-04-28T22:56:53.615Z,61.05
2023-04-28T22:59:20.141Z,60.88
2023-04-28T23:01:46.720Z,61.91
2023-04-28T23:04:13.404Z,62.14
2023-04-28T23:06:39.926Z,62.13
2023-04-28T23:09:06.992Z,62.15
2023-04-28T23:11:33.448Z,62.64
2023-04-28T23:13:59.921Z,62.48
2023-04-28T23:16:26.558Z,62.19
2023-04-28T23:18:53.147Z,62.18
2023-04-28T23:21:19.631Z,62.01
2023-04-28T23:23:46.228Z,62.03
2023-04-28T23:26:12.732Z,61.84
2023-04-28T23:28:39.179Z,61.69
2023-04-28T23:31:05.716Z,61.80
2023-04-28T23:33:32.174Z,61.65
2023-04-28T23:35:58.638Z,62.02
2023-04-28T23:38:26.320Z,62.05
2023-04-28T23:40:52.760Z,61.72
2023-04-28T23:43:19.249Z,62.70
2023-04-28T23:45:45.824Z,62.60
2023-04-28T23:48:12.536Z,62.84
2023-04-28T23:50:38.973Z,62.81
2023-04-28T23:53:05.527Z,62.78
2023-04-28T23:55:31.971Z,62.40
2023-04-28T23:57:58.497Z,62.58
